sensor_id;sensor_type;location;lat;lon;timestamp;temperature;humidity
12166;DHT22;6146;48.128;11.476;2023-05-07T00:01:43;12.60;99.90
12166;DHT22;6146;48.128;11.476;2023-05-07T00:04:09;12.60;99.90
12166;DHT22;6146;48.128;11.476;2023-05-07T00:06:35;12.60;99.90
12166;DHT22;6146;48.128;11.476;2023-05-07T00:09:01;12.50;99.90
12166;DHT22;6146;48.128;11.476;2023-05-07T00:11:27;12.50;99.90
12166;DHT22;6146;48.128;11.476;2023-05-07T00:13:53;12.50;99.90
12166;DHT22;6146;48.128;11.476;2023-05-07T00:16:19;12.40;99.90
12166;DHT22;6146;48.128;11.476;2023-05-07T00:18:44;12.40;99.90
12166;DHT22;6146;48.128;11.476;2023-05-07T00:21:10;12.40;99.90
12166;DHT22;6146;48.128;11.476;2023-05-07T00:23:36;12.40;99.90
12166;DHT22;6146;48.128;11.476;2023-05-07T00:26:03;12.30;99.90
12166;DHT22;6146;48.128;11.476;2023-05-07T00:28:28;12.30;99.90
12166;DHT22;6146;48.128;11.476;2023-05-07T00:30:54;12.20;99.90
12166;DHT22;6146;48.128;11.476;2023-05-07T00:33:20;12.20;99.90
12166;DHT22;6146;48.128;11.476;2023-05-07T00:35:46;12.20;99.90
12166;DHT22;6146;48.128;11.476;2023-05-07T00:38:11;12.20;99.90
12166;DHT22;6146;48.128;11.476;2023-05-07T00:40:37;12.20;99.90
12166;DHT22;6146;48.128;11.476;2023-05-07T00:43:03;12.20;99.90
12166;DHT22;6146;48.128;11.476;2023-05-07T00:45:29;12.20;99.90
12166;DHT22;6146;48.128;11.476;2023-05-07T00:47:58;12.20;99.90
12166;DHT22;6146;48.128;11.476;2023-05-07T00:50:25;12.20;99.90
12166;DHT22;6146;48.128;11.476;2023-05-07T00:52:51;12.20;99.90
12166;DHT22;6146;48.128;11.476;2023-05-07T00:55:17;12.20;99.90
12166;DHT22;6146;48.128;11.476;2023-05-07T00:57:43;12.20;99.90
12166;DHT22;6146;48.128;11.476;2023-05-07T01:00:10;12.20;99.90
12166;DHT22;6146;48.128;11.476;2023-05-07T01:02:38;12.20;99.90
12166;DHT22;6146;48.128;11.476;2023-05-07T01:05:05;12.20;99.90
12166;DHT22;6146;48.128;11.476;2023-05-07T01:07:32;12.20;99.90
12166;DHT22;6146;48.128;11.476;2023-05-07T01:09:58;12.20;99.90
12166;DHT22;6146;48.128;11.476;2023-05-07T01:12:25;12.20;99.90
12166;DHT22;6146;48.128;11.476;2023-05-07T01:14:50;12.20;99.90
12166;DHT22;6146;48.128;11.476;2023-05-07T01:17:17;12.20;99.90
12166;DHT22;6146;48.128;11.476;2023-05-07T01:19:42;12.20;99.90
12166;DHT22;6146;48.128;11.476;2023-05-07T01:22:10;12.20;99.90
12166;DHT22;6146;48.128;11.476;2023-05-07T01:24:37;12.20;99.90
12166;DHT22;6146;48.128;11.476;2023-05-07T01:27:04;12.20;99.90
12166;DHT22;6146;48.128;11.476;2023-05-07T01:29:29;12.20;99.90
12166;DHT22;6146;48.128;11.476;2023-05-07T01:32:00;12.30;99.90
12166;DHT22;6146;48.128;11.476;2023-05-07T01:34:28;12.30;99.90
12166;DHT22;6146;48.128;11.476;2023-05-07T01:36:56;12.30;99.90
12166;DHT22;6146;48.128;11.476;2023-05-07T01:39:27;12.20;99.90
12166;DHT22;6146;48.128;11.476;2023-05-07T01:41:55;12.20;99.90
12166;DHT22;6146;48.128;11.476;2023-05-07T01:44:22;12.20;99.90
12166;DHT22;6146;48.128;11.476;2023-05-07T01:46:48;12.20;99.90
12166;DHT22;6146;48.128;11.476;2023-05-07T01:49:15;12.30;99.90
12166;DHT22;6146;48.128;11.476;2023-05-07T01:51:41;12.30;99.90
12166;DHT22;6146;48.128;11.476;2023-05-07T01:54:07;12.30;99.90
12166;DHT22;6146;48.128;11.476;2023-05-07T01:56:33;12.30;99.90
12166;DHT22;6146;48.128;11.476;2023-05-07T01:58:59;12.30;99.90
12166;DHT22;6146;48.128;11.476;2023-05-07T02:01:24;12.30;99.90
12166;DHT22;6146;48.128;11.476;2023-05-07T02:03:50;12.30;99.90
12166;DHT22;6146;48.128;11.476;2023-05-07T02:06:16;12.20;99.90
12166;DHT22;6146;48.128;11.476;2023-05-07T02:08:41;12.20;99.90
12166;DHT22;6146;48.128;11.476;2023-05-07T02:11:07;12.20;99.90
12166;DHT22;6146;48.128;11.476;2023-05-07T02:13:33;12.20;99.90
12166;DHT22;6146;48.128;11.476;2023-05-07T02:16:00;12.20;99.90
12166;DHT22;6146;48.128;11.476;2023-05-07T02:18:25;12.20;99.90
12166;DHT22;6146;48.128;11.476;2023-05-07T02:20:51;12.20;99.90
12166;DHT22;6146;48.128;11.476;2023-05-07T02:23:17;12.20;99.90
12166;DHT22;6146;48.128;11.476;2023-05-07T02:25:42;12.20;99.90
12166;DHT22;6146;48.128;11.476;2023-05-07T02:28:08;12.20;99.90
12166;DHT22;6146;48.128;11.476;2023-05-07T02:30:33;12.20;99.90
12166;DHT22;6146;48.128;11.476;2023-05-07T02:32:59;12.20;99.90
12166;DHT22;6146;48.128;11.476;2023-05-07T02:35:25;12.20;99.90
12166;DHT22;6146;48.128;11.476;2023-05-07T02:37:51;12.20;99.90
12166;DHT22;6146;48.128;11.476;2023-05-07T02:40:16;12.20;99.90
12166;DHT22;6146;48.128;11.476;2023-05-07T02:42:42;12.10;99.90
12166;DHT22;6146;48.128;11.476;2023-05-07T02:45:08;12.10;99.90
12166;DHT22;6146;48.128;11.476;2023-05-07T02:47:34;12.10;99.90
12166;DHT22;6146;48.128;11.476;2023-05-07T02:49:59;12.10;99.90
12166;DHT22;6146;48.128;11.476;2023-05-07T02:52:25;12.10;99.90
12166;DHT22;6146;48.128;11.476;2023-05-07T02:54:51;12.10;99.90
12166;DHT22;6146;48.128;11.476;2023-05-07T02:57:16;12.10;99.90
12166;DHT22;6146;48.128;11.476;2023-05-07T02:59:42;12.10;99.90
12166;DHT22;6146;48.128;11.476;2023-05-07T03:02:08;12.10;99.90
12166;DHT22;6146;48.128;11.476;2023-05-07T03:04:33;12.10;99.90
12166;DHT22;6146;48.128;11.476;2023-05-07T03:06:59;12.10;99.90
12166;DHT22;6146;48.128;11.476;2023-05-07T03:09:24;12.10;99.90
12166;DHT22;6146;48.128;11.476;2023-05-07T03:11:50;12.10;99.90
12166;DHT22;6146;48.128;11.476;2023-05-07T03:14:15;12.00;99.90
12166;DHT22;6146;48.128;11.476;2023-05-07T03:16:41;12.10;99.90
12166;DHT22;6146;48.128;11.476;2023-05-07T03:19:06;12.00;99.90
12166;DHT22;6146;48.128;11.476;2023-05-07T03:21:32;12.00;99.90
12166;DHT22;6146;48.128;11.476;2023-05-07T03:23:59;12.00;99.90
12166;DHT22;6146;48.128;11.476;2023-05-07T03:26:25;12.00;99.90
12166;DHT22;6146;48.128;11.476;2023-05-07T03:28:51;11.90;99.90
12166;DHT22;6146;48.128;11.476;2023-05-07T03:31:17;11.90;99.90
12166;DHT22;6146;48.128;11.476;2023-05-07T03:33:56;11.90;99.90
12166;DHT22;6146;48.128;11.476;2023-05-07T03:36:23;11.80;99.90
12166;DHT22;6146;48.128;11.476;2023-05-07T03:38:49;11.80;99.90
12166;DHT22;6146;48.128;11.476;2023-05-07T03:41:15;11.80;99.90
12166;DHT22;6146;48.128;11.476;2023-05-07T03:43:41;11.70;99.90
12166;DHT22;6146;48.128;11.476;2023-05-07T03:46:07;11.70;99.90
12166;DHT22;6146;48.128;11.476;2023-05-07T03:48:32;11.70;99.90
12166;DHT22;6146;48.128;11.476;2023-05-07T03:50:58;11.60;99.90
12166;DHT22;6146;48.128;11.476;2023-05-07T03:53:24;11.60;99.90
12166;DHT22;6146;48.128;11.476;2023-05-07T03:55:50;11.60;99.90
12166;DHT22;6146;48.128;11.476;2023-05-07T03:58:15;11.60;99.90
12166;DHT22;6146;48.128;11.476;2023-05-07T04:00:41;11.60;99.90
12166;DHT22;6146;48.128;11.476;2023-05-07T04:03:07;11.60;99.90
12166;DHT22;6146;48.128;11.476;2023-05-07T04:05:33;11.60;99.90
12166;DHT22;6146;48.128;11.476;2023-05-07T04:07:59;11.60;99.90
12166;DHT22;6146;48.128;11.476;2023-05-07T04:10:25;11.60;99.90
12166;DHT22;6146;48.128;11.476;2023-05-07T04:12:50;11.50;99.90
12166;DHT22;6146;48.128;11.476;2023-05-07T04:15:16;11.60;99.90
12166;DHT22;6146;48.128;11.476;2023-05-07T04:17:42;11.60;99.90
12166;DHT22;6146;48.128;11.476;2023-05-07T04:20:14;11.60;99.90
12166;DHT22;6146;48.128;11.476;2023-05-07T04:22:41;11.60;99.90
12166;DHT22;6146;48.128;11.476;2023-05-07T04:25:07;11.70;99.90
12166;DHT22;6146;48.128;11.476;2023-05-07T04:27:34;11.70;99.90
12166;DHT22;6146;48.128;11.476;2023-05-07T04:30:00;11.70;99.90
12166;DHT22;6146;48.128;11.476;2023-05-07T04:32:26;11.70;99.90
12166;DHT22;6146;48.128;11.476;2023-05-07T04:34:51;11.80;99.90
12166;DHT22;6146;48.128;11.476;2023-05-07T04:37:18;11.80;99.90
12166;DHT22;6146;48.128;11.476;2023-05-07T04:39:44;11.90;99.90
12166;DHT22;6146;48.128;11.476;2023-05-07T04:42:09;12.10;99.90
12166;DHT22;6146;48.128;11.476;2023-05-07T04:44:39;12.40;99.90
12166;DHT22;6146;48.128;11.476;2023-05-07T04:47:05;12.80;99.90
12166;DHT22;6146;48.128;11.476;2023-05-07T04:49:31;13.10;99.90
12166;DHT22;6146;48.128;11.476;2023-05-07T04:51:57;13.50;99.90
12166;DHT22;6146;48.128;11.476;2023-05-07T04:54:22;13.70;99.90
12166;DHT22;6146;48.128;11.476;2023-05-07T04:56:48;13.80;99.90
12166;DHT22;6146;48.128;11.476;2023-05-07T04:59:13;13.90;99.90
12166;DHT22;6146;48.128;11.476;2023-05-07T05:01:39;13.90;99.90
12166;DHT22;6146;48.128;11.476;2023-05-07T05:04:05;14.00;99.90
12166;DHT22;6146;48.128;11.476;2023-05-07T05:06:31;14.20;99.90
12166;DHT22;6146;48.128;11.476;2023-05-07T05:08:57;14.50;99.90
12166;DHT22;6146;48.128;11.476;2023-05-07T05:11:23;14.60;99.90
12166;DHT22;6146;48.128;11.476;2023-05-07T05:13:49;14.80;99.90
12166;DHT22;6146;48.128;11.476;2023-05-07T05:16:15;15.10;99.90
12166;DHT22;6146;48.128;11.476;2023-05-07T05:18:41;15.30;99.90
12166;DHT22;6146;48.128;11.476;2023-05-07T05:21:06;15.80;99.90
12166;DHT22;6146;48.128;11.476;2023-05-07T05:23:32;16.60;99.90
12166;DHT22;6146;48.128;11.476;2023-05-07T05:25:58;17.20;99.90
12166;DHT22;6146;48.128;11.476;2023-05-07T05:28:23;17.60;99.90
12166;DHT22;6146;48.128;11.476;2023-05-07T05:30:49;18.10;99.90
12166;DHT22;6146;48.128;11.476;2023-05-07T05:33:15;18.80;99.90
12166;DHT22;6146;48.128;11.476;2023-05-07T05:35:41;19.60;99.90
12166;DHT22;6146;48.128;11.476;2023-05-07T05:38:07;20.80;99.90
12166;DHT22;6146;48.128;11.476;2023-05-07T05:40:32;22.30;99.90
12166;DHT22;6146;48.128;11.476;2023-05-07T05:42:58;23.50;99.90
12166;DHT22;6146;48.128;11.476;2023-05-07T05:45:24;24.00;99.90
12166;DHT22;6146;48.128;11.476;2023-05-07T05:47:50;24.30;99.90
12166;DHT22;6146;48.128;11.476;2023-05-07T05:50:16;24.60;99.30
12166;DHT22;6146;48.128;11.476;2023-05-07T05:52:41;25.60;96.70
12166;DHT22;6146;48.128;11.476;2023-05-07T05:55:07;26.60;94.90
12166;DHT22;6146;48.128;11.476;2023-05-07T05:57:33;27.50;91.70
12166;DHT22;6146;48.128;11.476;2023-05-07T06:00:00;28.00;86.70
12166;DHT22;6146;48.128;11.476;2023-05-07T06:02:26;28.30;85.50
12166;DHT22;6146;48.128;11.476;2023-05-07T06:04:51;28.40;82.90
12166;DHT22;6146;48.128;11.476;2023-05-07T06:07:17;29.30;79.80
12166;DHT22;6146;48.128;11.476;2023-05-07T06:09:42;30.00;75.50
12166;DHT22;6146;48.128;11.476;2023-05-07T06:12:08;30.60;71.10
12166;DHT22;6146;48.128;11.476;2023-05-07T06:14:33;30.40;68.80
12166;DHT22;6146;48.128;11.476;2023-05-07T06:16:59;30.50;67.60
12166;DHT22;6146;48.128;11.476;2023-05-07T06:19:24;30.90;65.70
12166;DHT22;6146;48.128;11.476;2023-05-07T06:21:51;30.80;66.00
12166;DHT22;6146;48.128;11.476;2023-05-07T06:24:17;31.50;63.60
12166;DHT22;6146;48.128;11.476;2023-05-07T06:26:42;32.30;59.90
12166;DHT22;6146;48.128;11.476;2023-05-07T06:29:08;31.60;60.80
12166;DHT22;6146;48.128;11.476;2023-05-07T06:31:34;31.10;61.30
12166;DHT22;6146;48.128;11.476;2023-05-07T06:33:59;31.80;62.00
12166;DHT22;6146;48.128;11.476;2023-05-07T06:36:27;33.00;59.10
12166;DHT22;6146;48.128;11.476;2023-05-07T06:38:53;33.90;55.90
12166;DHT22;6146;48.128;11.476;2023-05-07T06:41:18;33.60;54.30
12166;DHT22;6146;48.128;11.476;2023-05-07T06:43:44;33.50;53.60
12166;DHT22;6146;48.128;11.476;2023-05-07T06:46:09;33.20;52.80
12166;DHT22;6146;48.128;11.476;2023-05-07T06:48:35;32.80;52.90
12166;DHT22;6146;48.128;11.476;2023-05-07T06:51:01;32.50;54.10
12166;DHT22;6146;48.128;11.476;2023-05-07T06:53:26;32.40;53.30
12166;DHT22;6146;48.128;11.476;2023-05-07T06:55:53;31.50;54.70
12166;DHT22;6146;48.128;11.476;2023-05-07T06:58:19;30.70;56.40
12166;DHT22;6146;48.128;11.476;2023-05-07T07:00:44;29.90;58.00
12166;DHT22;6146;48.128;11.476;2023-05-07T07:03:11;29.60;59.40
12166;DHT22;6146;48.128;11.476;2023-05-07T07:05:36;29.80;59.20
12166;DHT22;6146;48.128;11.476;2023-05-07T07:08:02;29.90;59.30
12166;DHT22;6146;48.128;11.476;2023-05-07T07:10:28;30.20;57.30
12166;DHT22;6146;48.128;11.476;2023-05-07T07:12:53;30.70;58.30
12166;DHT22;6146;48.128;11.476;2023-05-07T07:15:19;31.60;56.30
12166;DHT22;6146;48.128;11.476;2023-05-07T07:17:46;32.50;54.60
12166;DHT22;6146;48.128;11.476;2023-05-07T07:20:11;32.90;53.30
12166;DHT22;6146;48.128;11.476;2023-05-07T07:22:37;32.80;51.60
12166;DHT22;6146;48.128;11.476;2023-05-07T07:25:03;32.30;51.90
12166;DHT22;6146;48.128;11.476;2023-05-07T07:27:28;31.90;52.60
12166;DHT22;6146;48.128;11.476;2023-05-07T07:29:54;30.60;55.40
12166;DHT22;6146;48.128;11.476;2023-05-07T07:32:20;29.40;57.40
12166;DHT22;6146;48.128;11.476;2023-05-07T07:34:45;29.60;56.30
12166;DHT22;6146;48.128;11.476;2023-05-07T07:37:11;29.30;57.20
12166;DHT22;6146;48.128;11.476;2023-05-07T07:39:36;28.10;59.90
12166;DHT22;6146;48.128;11.476;2023-05-07T07:42:06;28.50;59.00
12166;DHT22;6146;48.128;11.476;2023-05-07T07:44:32;28.50;60.20
12166;DHT22;6146;48.128;11.476;2023-05-07T07:46:57;29.40;58.40
12166;DHT22;6146;48.128;11.476;2023-05-07T07:49:23;29.60;57.80
12166;DHT22;6146;48.128;11.476;2023-05-07T07:51:48;29.80;57.50
12166;DHT22;6146;48.128;11.476;2023-05-07T07:54:14;30.80;55.70
12166;DHT22;6146;48.128;11.476;2023-05-07T07:56:39;31.60;55.10
12166;DHT22;6146;48.128;11.476;2023-05-07T07:59:05;31.60;52.50
12166;DHT22;6146;48.128;11.476;2023-05-07T08:01:31;30.70;55.00
12166;DHT22;6146;48.128;11.476;2023-05-07T08:03:56;31.20;54.00
12166;DHT22;6146;48.128;11.476;2023-05-07T08:06:24;32.10;54.30
12166;DHT22;6146;48.128;11.476;2023-05-07T08:08:51;32.80;51.90
12166;DHT22;6146;48.128;11.476;2023-05-07T08:11:17;32.70;51.90
12166;DHT22;6146;48.128;11.476;2023-05-07T08:13:42;33.70;51.40
12166;DHT22;6146;48.128;11.476;2023-05-07T08:16:08;33.10;50.10
12166;DHT22;6146;48.128;11.476;2023-05-07T08:18:34;32.30;50.20
12166;DHT22;6146;48.128;11.476;2023-05-07T08:21:01;31.00;54.30
12166;DHT22;6146;48.128;11.476;2023-05-07T08:23:26;31.00;53.40
12166;DHT22;6146;48.128;11.476;2023-05-07T08:25:52;31.60;52.80
12166;DHT22;6146;48.128;11.476;2023-05-07T08:28:18;32.20;52.90
12166;DHT22;6146;48.128;11.476;2023-05-07T08:30:45;33.10;50.70
12166;DHT22;6146;48.128;11.476;2023-05-07T08:33:10;33.00;48.10
12166;DHT22;6146;48.128;11.476;2023-05-07T08:35:36;32.70;49.90
12166;DHT22;6146;48.128;11.476;2023-05-07T08:38:01;32.40;50.40
12166;DHT22;6146;48.128;11.476;2023-05-07T08:40:27;31.20;53.30
12166;DHT22;6146;48.128;11.476;2023-05-07T08:42:53;30.80;56.70
12166;DHT22;6146;48.128;11.476;2023-05-07T08:45:20;31.50;53.40
12166;DHT22;6146;48.128;11.476;2023-05-07T08:48:00;31.90;52.50
12166;DHT22;6146;48.128;11.476;2023-05-07T08:50:27;32.00;51.50
12166;DHT22;6146;48.128;11.476;2023-05-07T08:52:53;31.20;51.80
12166;DHT22;6146;48.128;11.476;2023-05-07T08:55:18;31.10;52.40
12166;DHT22;6146;48.128;11.476;2023-05-07T08:57:44;31.80;52.00
12166;DHT22;6146;48.128;11.476;2023-05-07T09:00:10;32.00;51.80
12166;DHT22;6146;48.128;11.476;2023-05-07T09:02:36;32.00;52.40
12166;DHT22;6146;48.128;11.476;2023-05-07T09:05:02;31.80;51.10
12166;DHT22;6146;48.128;11.476;2023-05-07T09:07:29;31.60;52.50
12166;DHT22;6146;48.128;11.476;2023-05-07T09:09:55;32.50;50.10
12166;DHT22;6146;48.128;11.476;2023-05-07T09:12:22;31.90;50.00
12166;DHT22;6146;48.128;11.476;2023-05-07T09:14:48;31.00;52.50
12166;DHT22;6146;48.128;11.476;2023-05-07T09:17:15;31.50;48.90
12166;DHT22;6146;48.128;11.476;2023-05-07T09:19:41;31.80;50.40
12166;DHT22;6146;48.128;11.476;2023-05-07T09:22:06;32.40;49.20
12166;DHT22;6146;48.128;11.476;2023-05-07T09:24:32;32.70;47.70
12166;DHT22;6146;48.128;11.476;2023-05-07T09:27:04;32.10;49.70
12166;DHT22;6146;48.128;11.476;2023-05-07T09:29:29;31.10;49.30
12166;DHT22;6146;48.128;11.476;2023-05-07T09:32:03;30.40;52.50
12166;DHT22;6146;48.128;11.476;2023-05-07T09:34:30;31.50;50.00
12166;DHT22;6146;48.128;11.476;2023-05-07T09:36:56;31.30;44.80
12166;DHT22;6146;48.128;11.476;2023-05-07T09:39:23;30.70;49.10
12166;DHT22;6146;48.128;11.476;2023-05-07T09:41:49;30.30;50.60
12166;DHT22;6146;48.128;11.476;2023-05-07T09:44:16;30.70;50.20
12166;DHT22;6146;48.128;11.476;2023-05-07T09:46:43;31.40;47.40
12166;DHT22;6146;48.128;11.476;2023-05-07T09:49:23;30.90;44.70
12166;DHT22;6146;48.128;11.476;2023-05-07T09:51:51;30.10;47.60
12166;DHT22;6146;48.128;11.476;2023-05-07T09:54:18;29.50;49.50
12166;DHT22;6146;48.128;11.476;2023-05-07T09:56:44;29.80;52.00
12166;DHT22;6146;48.128;11.476;2023-05-07T09:59:13;30.60;51.80
12166;DHT22;6146;48.128;11.476;2023-05-07T10:01:41;30.30;51.70
12166;DHT22;6146;48.128;11.476;2023-05-07T10:04:07;30.60;52.00
12166;DHT22;6146;48.128;11.476;2023-05-07T10:06:35;31.30;51.60
12166;DHT22;6146;48.128;11.476;2023-05-07T10:09:01;31.10;50.00
12166;DHT22;6146;48.128;11.476;2023-05-07T10:11:28;30.00;52.70
12166;DHT22;6146;48.128;11.476;2023-05-07T10:13:53;28.90;54.30
12166;DHT22;6146;48.128;11.476;2023-05-07T10:16:20;28.80;53.20
12166;DHT22;6146;48.128;11.476;2023-05-07T10:18:46;28.90;53.70
12166;DHT22;6146;48.128;11.476;2023-05-07T10:21:19;29.30;52.90
12166;DHT22;6146;48.128;11.476;2023-05-07T10:23:59;29.40;52.50
12166;DHT22;6146;48.128;11.476;2023-05-07T10:26:27;28.50;55.00
12166;DHT22;6146;48.128;11.476;2023-05-07T10:29:06;28.70;55.40
12166;DHT22;6146;48.128;11.476;2023-05-07T10:34:06;30.40;52.30
12166;DHT22;6146;48.128;11.476;2023-05-07T10:36:33;30.70;51.50
12166;DHT22;6146;48.128;11.476;2023-05-07T10:38:59;31.30;51.10
12166;DHT22;6146;48.128;11.476;2023-05-07T10:41:25;31.00;50.20
12166;DHT22;6146;48.128;11.476;2023-05-07T10:43:51;31.00;49.70
12166;DHT22;6146;48.128;11.476;2023-05-07T10:46:20;30.90;49.90
12166;DHT22;6146;48.128;11.476;2023-05-07T10:51:31;30.20;52.40
12166;DHT22;6146;48.128;11.476;2023-05-07T10:56:42;30.90;51.20
12166;DHT22;6146;48.128;11.476;2023-05-07T11:02:03;30.60;49.20
12166;DHT22;6146;48.128;11.476;2023-05-07T11:04:30;30.50;50.20
12166;DHT22;6146;48.128;11.476;2023-05-07T11:15:09;29.20;51.40
12166;DHT22;6146;48.128;11.476;2023-05-07T11:17:35;29.70;51.40
12166;DHT22;6146;48.128;11.476;2023-05-07T11:20:17;29.80;49.20
12166;DHT22;6146;48.128;11.476;2023-05-07T11:22:42;30.00;50.10
12166;DHT22;6146;48.128;11.476;2023-05-07T11:25:08;29.80;50.00
12166;DHT22;6146;48.128;11.476;2023-05-07T11:27:34;29.90;51.70
12166;DHT22;6146;48.128;11.476;2023-05-07T11:30:00;30.70;50.50
12166;DHT22;6146;48.128;11.476;2023-05-07T11:32:31;31.90;49.10
12166;DHT22;6146;48.128;11.476;2023-05-07T11:34:58;32.10;47.80
12166;DHT22;6146;48.128;11.476;2023-05-07T11:37:25;31.40;49.10
12166;DHT22;6146;48.128;11.476;2023-05-07T11:40:05;30.80;50.30
12166;DHT22;6146;48.128;11.476;2023-05-07T11:42:38;30.80;49.90
12166;DHT22;6146;48.128;11.476;2023-05-07T11:45:05;30.20;51.10
12166;DHT22;6146;48.128;11.476;2023-05-07T11:47:31;29.80;51.80
12166;DHT22;6146;48.128;11.476;2023-05-07T11:50:03;29.00;53.60
12166;DHT22;6146;48.128;11.476;2023-05-07T11:52:29;28.10;56.50
12166;DHT22;6146;48.128;11.476;2023-05-07T11:54:58;27.60;57.10
12166;DHT22;6146;48.128;11.476;2023-05-07T11:57:25;27.60;56.50
12166;DHT22;6146;48.128;11.476;2023-05-07T11:59:55;28.10;55.70
12166;DHT22;6146;48.128;11.476;2023-05-07T12:02:21;28.50;55.30
12166;DHT22;6146;48.128;11.476;2023-05-07T12:04:46;28.80;55.00
12166;DHT22;6146;48.128;11.476;2023-05-07T12:07:13;28.60;53.00
12166;DHT22;6146;48.128;11.476;2023-05-07T12:09:39;28.50;54.30
12166;DHT22;6146;48.128;11.476;2023-05-07T12:12:05;27.50;55.00
12166;DHT22;6146;48.128;11.476;2023-05-07T12:14:31;26.80;57.50
12166;DHT22;6146;48.128;11.476;2023-05-07T12:17:01;26.90;57.00
12166;DHT22;6146;48.128;11.476;2023-05-07T12:19:31;27.40;56.20
12166;DHT22;6146;48.128;11.476;2023-05-07T12:21:57;28.00;55.20
12166;DHT22;6146;48.128;11.476;2023-05-07T12:24:22;27.70;56.30
12166;DHT22;6146;48.128;11.476;2023-05-07T12:26:48;27.70;56.60
12166;DHT22;6146;48.128;11.476;2023-05-07T12:29:14;28.10;56.10
12166;DHT22;6146;48.128;11.476;2023-05-07T12:31:41;28.20;54.30
12166;DHT22;6146;48.128;11.476;2023-05-07T12:34:07;27.30;54.80
12166;DHT22;6146;48.128;11.476;2023-05-07T12:36:39;26.20;57.70
12166;DHT22;6146;48.128;11.476;2023-05-07T12:39:08;25.90;59.30
12166;DHT22;6146;48.128;11.476;2023-05-07T12:41:53;25.90;58.60
12166;DHT22;6146;48.128;11.476;2023-05-07T12:44:22;25.70;60.30
12166;DHT22;6146;48.128;11.476;2023-05-07T12:46:47;25.90;60.10
12166;DHT22;6146;48.128;11.476;2023-05-07T12:49:13;25.90;59.60
12166;DHT22;6146;48.128;11.476;2023-05-07T12:51:39;26.20;58.30
12166;DHT22;6146;48.128;11.476;2023-05-07T12:54:04;26.10;57.10
12166;DHT22;6146;48.128;11.476;2023-05-07T12:56:36;26.10;57.50
12166;DHT22;6146;48.128;11.476;2023-05-07T12:59:02;25.80;58.80
12166;DHT22;6146;48.128;11.476;2023-05-07T13:01:31;25.90;58.90
12166;DHT22;6146;48.128;11.476;2023-05-07T13:04:05;25.90;58.80
12166;DHT22;6146;48.128;11.476;2023-05-07T13:06:31;26.10;58.90
12166;DHT22;6146;48.128;11.476;2023-05-07T13:08:57;26.40;58.10
12166;DHT22;6146;48.128;11.476;2023-05-07T13:11:22;26.20;58.50
12166;DHT22;6146;48.128;11.476;2023-05-07T13:13:48;26.00;58.80
12166;DHT22;6146;48.128;11.476;2023-05-07T13:16:13;26.10;57.40
12166;DHT22;6146;48.128;11.476;2023-05-07T13:18:40;25.90;59.40
12166;DHT22;6146;48.128;11.476;2023-05-07T13:21:06;25.90;58.90
12166;DHT22;6146;48.128;11.476;2023-05-07T13:23:31;25.90;58.30
12166;DHT22;6146;48.128;11.476;2023-05-07T13:25:57;26.10;59.40
12166;DHT22;6146;48.128;11.476;2023-05-07T13:28:23;26.20;57.90
12166;DHT22;6146;48.128;11.476;2023-05-07T13:30:49;26.30;56.50
12166;DHT22;6146;48.128;11.476;2023-05-07T13:33:17;26.70;56.90
12166;DHT22;6146;48.128;11.476;2023-05-07T13:35:42;26.80;57.30
12166;DHT22;6146;48.128;11.476;2023-05-07T13:38:08;26.50;56.50
12166;DHT22;6146;48.128;11.476;2023-05-07T13:40:34;26.20;57.40
12166;DHT22;6146;48.128;11.476;2023-05-07T13:43:00;26.20;58.10
12166;DHT22;6146;48.128;11.476;2023-05-07T13:45:28;26.50;59.30
12166;DHT22;6146;48.128;11.476;2023-05-07T13:47:55;26.30;57.20
12166;DHT22;6146;48.128;11.476;2023-05-07T13:50:20;26.00;56.10
12166;DHT22;6146;48.128;11.476;2023-05-07T13:52:46;25.60;57.10
12166;DHT22;6146;48.128;11.476;2023-05-07T13:55:17;25.30;59.70
12166;DHT22;6146;48.128;11.476;2023-05-07T13:57:43;25.20;57.50
12166;DHT22;6146;48.128;11.476;2023-05-07T14:00:09;25.10;57.60
12166;DHT22;6146;48.128;11.476;2023-05-07T14:02:35;24.90;58.70
12166;DHT22;6146;48.128;11.476;2023-05-07T14:05:00;24.70;58.60
12166;DHT22;6146;48.128;11.476;2023-05-07T14:07:26;24.60;58.30
12166;DHT22;6146;48.128;11.476;2023-05-07T14:09:51;24.20;59.80
12166;DHT22;6146;48.128;11.476;2023-05-07T14:12:17;24.00;59.40
12166;DHT22;6146;48.128;11.476;2023-05-07T14:14:42;24.10;61.00
12166;DHT22;6146;48.128;11.476;2023-05-07T14:17:08;24.30;62.60
12166;DHT22;6146;48.128;11.476;2023-05-07T14:19:34;24.40;60.60
12166;DHT22;6146;48.128;11.476;2023-05-07T14:21:59;24.30;58.70
12166;DHT22;6146;48.128;11.476;2023-05-07T14:24:25;24.10;59.40
12166;DHT22;6146;48.128;11.476;2023-05-07T14:26:51;24.10;62.40
12166;DHT22;6146;48.128;11.476;2023-05-07T14:29:16;24.10;60.40
12166;DHT22;6146;48.128;11.476;2023-05-07T14:31:44;24.10;61.80
12166;DHT22;6146;48.128;11.476;2023-05-07T14:34:10;24.00;61.40
12166;DHT22;6146;48.128;11.476;2023-05-07T14:36:36;23.90;60.40
12166;DHT22;6146;48.128;11.476;2023-05-07T14:39:01;23.80;63.20
12166;DHT22;6146;48.128;11.476;2023-05-07T14:41:27;23.80;63.50
12166;DHT22;6146;48.128;11.476;2023-05-07T14:43:53;24.00;64.10
12166;DHT22;6146;48.128;11.476;2023-05-07T14:46:19;24.20;62.00
12166;DHT22;6146;48.128;11.476;2023-05-07T14:48:45;24.30;61.60
12166;DHT22;6146;48.128;11.476;2023-05-07T14:51:11;24.40;60.30
12166;DHT22;6146;48.128;11.476;2023-05-07T14:53:37;24.20;62.40
12166;DHT22;6146;48.128;11.476;2023-05-07T14:56:03;24.10;61.00
12166;DHT22;6146;48.128;11.476;2023-05-07T14:58:29;23.80;62.30
12166;DHT22;6146;48.128;11.476;2023-05-07T15:00:54;23.50;64.00
12166;DHT22;6146;48.128;11.476;2023-05-07T15:03:20;23.30;65.40
12166;DHT22;6146;48.128;11.476;2023-05-07T15:05:46;23.20;66.30
12166;DHT22;6146;48.128;11.476;2023-05-07T15:08:12;23.30;66.20
12166;DHT22;6146;48.128;11.476;2023-05-07T15:10:38;23.20;66.90
12166;DHT22;6146;48.128;11.476;2023-05-07T15:13:07;23.20;68.20
12166;DHT22;6146;48.128;11.476;2023-05-07T15:15:33;23.10;67.00
12166;DHT22;6146;48.128;11.476;2023-05-07T15:17:58;23.20;67.50
12166;DHT22;6146;48.128;11.476;2023-05-07T15:20:25;23.20;67.70
12166;DHT22;6146;48.128;11.476;2023-05-07T15:22:51;22.90;68.30
12166;DHT22;6146;48.128;11.476;2023-05-07T15:25:17;22.60;69.10
12166;DHT22;6146;48.128;11.476;2023-05-07T15:27:42;22.50;70.10
12166;DHT22;6146;48.128;11.476;2023-05-07T15:30:08;22.50;71.40
12166;DHT22;6146;48.128;11.476;2023-05-07T15:32:37;22.40;71.20
12166;DHT22;6146;48.128;11.476;2023-05-07T15:35:04;22.40;72.30
12166;DHT22;6146;48.128;11.476;2023-05-07T15:37:32;22.40;72.00
12166;DHT22;6146;48.128;11.476;2023-05-07T15:39:58;22.40;71.90
12166;DHT22;6146;48.128;11.476;2023-05-07T15:42:24;22.30;72.20
12166;DHT22;6146;48.128;11.476;2023-05-07T15:44:49;22.00;72.80